Newport, AR

8:44 AM CDT on August 29, 2015 (GMT -0500)
Newport | | Change Station
CLOSE
Current Station
Airport
Location: Newport,
Elevation: 240 ft
Nearby Weather Stations
Active Advisory: Flood Warning Active Notice: Record Report

Elev 240 ft 35.64 °N, 91.17 °W | Updated 48 minutes ago

Partly Cloudy
Partly Cloudy
73 °F
Feels Like 73 °F
N
6
Wind Variable Wind from SE

Today
High -- | Low -- °F
--% Chance of Precip.
Yesterday
High -- | Low -- °F
Precip. -- in
6:34 AM 7:36 PM
Full, 100% visible
Pressure 30.05 in
Visibility 10.0 miles
Clouds Clear
Dew Point 70 °F
Humidity 91%
Rainfall 0.00 in
Snow Depth Not available.
UV 1 out of 12
Pollen 9.20 out of 12
Air Quality Not available.
Flu Activity Not available.
METAR KM19 291256Z AUTO 13005KT 10SM CLR 23/21 A3006 RMK AO2 T02270211 SLP175
Pressure 30.05 in
Visibility 10.0 miles
Clouds Clear
Dew Point 70 °F
Humidity 91%
Rainfall 0.00 in
Snow Depth Not available.
UV 1 out of 12
Pollen 9.20 out of 12
Air Quality Not available.
Flu Activity Not available.
METAR KM19 291256Z AUTO 13005KT 10SM CLR 23/21 A3006 RMK AO2 T02270211 SLP175

10-Day Weather Forecast

×

Almanac

Astronomy

Aug. 29, 2015 Rise Set
Actual Time
Civil Twilight
Nautical Twilight
Astronomical Twilight
Moon
Length of Visible Light
Length of Day
Tomorrow will be .
, % of the Moon is Illuminated

Today's Extremes

State Highs State Lows

Community

WunderPhotos

Upload Photos

1,850,686 photos uploaded!

WunderBlogs® & News

Nearby

Air Quality

  Air Quality AQ Index Pollutant
Not available.

Snow Depth

Station Depth Elevation

Earthquake Activity

City Distance Mag. Time & Date
Minimum magnitude displayed is 2.5.

Coastal Water Temperatures

Place Temperature

Stations

Nearby Weather Stations

Station Location Temp. Windchill Dew Point Humidity Wind Precip. Elev Updated Type
                   
Flood Warning
Statement as of 8:00 PM CDT on August 28, 2015

The Flood Warning continues for
the Cache River near Patterson.
* Until further notice... or until the warning is cancelled.
* At 7:00 PM Friday the stage was 8.5 feet.
* Minor flooding is occurring and minor flooding is forecast.
* Flood stage is 8.0 feet.
* Forecast... the river will continue to fall to a stage of 8.2 feet
by Sunday morning.
* Impacts at 8.0 feet... low swampy Timberland along the river begins
to flood. Flood gates should be closed and equipment moved out of
the low grounds along the river and tributaries.


             Fld observed forecast 7 am
location stg stg day time Sat sun Mon Tue Wed

Cache River
Patterson 8 8.5 Fri 07 PM 8.4 8.2 8.1 8.1 8.1




Lat... Lon 3510 9133 3522 9128 3539 9123 3538 9113
3521 9117 3508 9122




111